Time;durP1;ratioP1;P1;durP2;ratioP2;P2;SDS_P1;SDS_P2;PMS_P1;PMS_P2;Temp;Humidity;BMP_temperature;BMP_pressure;BME280_temperature;BME280_humidity;BME280_pressure;Samples;Min_cycle;Max_cycle;Signal;HPM_P1;HPM_P2
2023/05/01 00:03:57;;;;;;;11.43;6.37;;;;;;;12.76;59.91;100057.50;7737173;32;37897;-80
2023/05/01 00:08:14;;;;;;;9.73;5.45;;;;;;;12.63;60.18;100049.88;7736803;32;36915;-79
2023/05/01 00:12:31;;;;;;;10.52;6.60;;;;;;;12.54;59.73;100046.91;7737079;32;39415;-79
2023/05/01 00:16:47;;;;;;;11.98;6.45;;;;;;;12.56;59.18;100043.87;7736340;32;39879;-78
2023/05/01 00:21:04;;;;;;;10.55;6.35;;;;;;;12.54;58.99;100046.09;7729729;32;38005;-79
2023/05/01 00:25:20;;;;;;;11.15;6.28;;;;;;;12.27;60.05;100049.16;7736772;32;36906;-79
2023/05/01 00:29:36;;;;;;;10.48;5.80;;;;;;;12.28;59.74;100048.88;7736640;32;40050;-80
2023/05/01 00:33:53;;;;;;;9.50;5.30;;;;;;;12.32;59.75;100039.03;7736421;32;40906;-79
2023/05/01 00:38:09;;;;;;;9.75;5.45;;;;;;;12.35;60.10;100029.47;7736472;32;38728;-79
2023/05/01 00:42:25;;;;;;;7.32;5.00;;;;;;;12.50;60.98;100029.38;7736308;32;37166;-78
2023/05/01 00:46:42;;;;;;;8.18;4.90;;;;;;;12.37;61.49;100038.19;7736166;32;39250;-80
2023/05/01 00:50:59;;;;;;;9.38;4.95;;;;;;;12.51;61.33;100038.44;7709888;32;40186;-79
2023/05/01 00:55:16;;;;;;;8.88;5.35;;;;;;;12.78;59.10;100041.59;7707997;32;37933;-79
2023/05/01 00:59:32;;;;;;;9.55;5.47;;;;;;;12.43;60.46;100044.47;7709169;32;37007;-80
2023/05/01 01:03:50;;;;;;;8.68;5.03;;;;;;;12.35;61.35;100035.75;7709034;32;40062;-79
2023/05/01 01:08:27;;;;;;;9.10;5.10;;;;;;;12.17;62.46;100041.78;7708822;32;40937;-79
2023/05/01 01:13:12;;;;;;;8.85;5.05;;;;;;;12.14;61.61;100045.06;7708786;32;37892;-79
2023/05/01 01:17:47;;;;;;;11.68;6.07;;;;;;;12.42;59.86;100032.72;7709004;32;37882;-79
2023/05/01 01:22:11;;;;;;;12.20;5.45;;;;;;;12.12;61.04;100039.88;7711664;32;39327;-79
2023/05/01 01:26:39;;;;;;;10.50;5.60;;;;;;;12.15;61.05;100043.97;7712409;32;40884;-79
2023/05/01 01:30:55;;;;;;;9.57;5.78;;;;;;;11.93;62.40;100044.28;7711425;32;38726;-79
2023/05/01 01:35:19;;;;;;;9.80;4.90;;;;;;;12.05;61.15;100044.00;7712490;32;37172;-79
2023/05/01 01:40:01;;;;;;;12.52;5.95;;;;;;;12.10;60.11;100041.25;7711355;32;39407;-79
2023/05/01 01:44:36;;;;;;;11.02;5.40;;;;;;;11.80;61.31;100042.91;7731604;32;40000;-79
2023/05/01 01:48:55;;;;;;;10.10;5.60;;;;;;;11.90;60.92;100042.06;7725466;32;38805;-79
2023/05/01 01:53:14;;;;;;;8.45;5.78;;;;;;;11.77;60.39;100043.44;7711114;32;36921;-78
2023/05/01 01:57:30;;;;;;;11.15;5.93;;;;;;;11.79;60.63;100049.44;7711143;32;40033;-78
2023/05/01 02:01:48;;;;;;;11.23;6.05;;;;;;;11.99;59.58;100046.75;7718555;32;40036;-78
2023/05/01 02:06:05;;;;;;;8.20;5.68;;;;;;;11.93;59.28;100036.87;7738776;32;37933;-78
2023/05/01 02:10:22;;;;;;;8.68;5.78;;;;;;;11.55;60.32;100051.91;7738837;32;37056;-78
2023/05/01 02:14:40;;;;;;;9.90;6.07;;;;;;;11.54;61.96;100050.25;7737601;32;40141;-79
2023/05/01 02:18:56;;;;;;;9.82;5.50;;;;;;;11.45;62.03;100052.69;7720982;32;39922;-79
2023/05/01 02:23:13;;;;;;;8.50;5.62;;;;;;;11.55;61.25;100062.81;7711395;32;38780;-80
2023/05/01 02:27:33;;;;;;;9.00;5.28;;;;;;;11.54;61.04;100058.44;7710591;32;37668;-78
2023/05/01 02:31:50;;;;;;;8.85;5.68;;;;;;;11.61;60.90;100054.34;7710656;32;40101;-79
2023/05/01 02:36:07;;;;;;;11.07;5.57;;;;;;;11.53;60.50;100063.09;7711916;32;40597;-79
2023/05/01 02:40:23;;;;;;;9.63;5.72;;;;;;;11.53;60.46;100056.81;7711595;32;38652;-79
2023/05/01 02:44:44;;;;;;;16.15;6.45;;;;;;;11.60;60.50;100060.09;7710467;32;37068;-79
2023/05/01 02:49:01;;;;;;;10.77;6.55;;;;;;;11.61;61.29;100059.81;7727655;32;39033;-79
2023/05/01 02:53:18;;;;;;;12.75;6.65;;;;;;;11.73;61.59;100064.19;7738307;32;39945;-79
2023/05/01 02:57:35;;;;;;;13.27;6.50;;;;;;;11.53;62.51;100065.81;7737141;32;38781;-79
2023/05/01 03:01:51;;;;;;;10.43;6.22;;;;;;;11.62;62.21;100058.75;7738326;32;36883;-79
2023/05/01 03:06:08;;;;;;;11.00;5.97;;;;;;;11.63;61.80;100060.38;7738117;32;39431;-78
2023/05/01 03:10:24;;;;;;;11.48;6.30;;;;;;;11.68;61.32;100066.94;7738150;32;40494;-79
2023/05/01 03:14:40;;;;;;;9.45;5.60;;;;;;;11.62;61.08;100058.75;7738081;32;38731;-78
2023/05/01 03:18:57;;;;;;;9.18;5.25;;;;;;;11.57;61.01;100060.63;7719103;32;37665;-78
2023/05/01 03:23:13;;;;;;;9.32;5.68;;;;;;;11.63;60.80;100068.56;7711084;32;40052;-79
2023/05/01 03:27:30;;;;;;;9.18;5.97;;;;;;;11.64;60.28;100072.94;7710960;32;39940;-79
2023/05/01 03:31:46;;;;;;;10.35;5.62;;;;;;;11.46;60.10;100074.28;7711022;32;38056;-78
2023/05/01 03:36:04;;;;;;;9.88;5.30;;;;;;;11.41;59.85;100073.44;7711031;32;37964;-79
2023/05/01 03:40:21;;;;;;;10.25;5.78;;;;;;;11.48;59.76;100076.72;7711438;32;37590;-79
2023/05/01 03:44:37;;;;;;;11.02;6.37;;;;;;;11.56;59.59;100075.38;7710103;32;39918;-79
2023/05/01 03:48:54;;;;;;;9.52;5.30;;;;;;;11.57;59.66;100086.03;7710575;32;37944;-79
2023/05/01 03:53:10;;;;;;;9.88;5.47;;;;;;;11.54;59.93;100083.00;7710761;32;36754;-79
2023/05/01 03:57:27;;;;;;;8.88;5.50;;;;;;;11.53;59.81;100082.19;7710739;32;39434;-79
2023/05/01 04:01:43;;;;;;;11.00;5.43;;;;;;;11.65;59.42;100080.03;7710542;32;39944;-78
2023/05/01 04:06:00;;;;;;;9.35;5.15;;;;;;;11.72;59.31;100073.50;7710341;32;37818;-80
2023/05/01 04:10:16;;;;;;;7.35;4.70;;;;;;;11.73;59.37;100080.56;7710261;32;37042;-79
2023/05/01 04:14:32;;;;;;;7.53;4.62;;;;;;;11.84;58.61;100087.69;7710279;32;39467;-79
2023/05/01 04:18:49;;;;;;;11.32;5.55;;;;;;;11.88;58.36;100083.31;7716754;32;40008;-79
2023/05/01 04:23:06;;;;;;;8.70;4.75;;;;;;;11.71;58.43;100082.75;7736614;32;39191;-79
2023/05/01 04:27:23;;;;;;;7.37;4.60;;;;;;;11.76;58.16;100093.69;7736662;32;37738;-78
2023/05/01 04:31:40;;;;;;;8.50;4.60;;;;;;;11.57;58.75;100087.94;7736648;32;39412;-78
2023/05/01 04:35:56;;;;;;;8.18;4.82;;;;;;;11.77;58.27;100098.06;7736595;32;40120;-79
2023/05/01 04:40:13;;;;;;;6.20;4.40;;;;;;;11.79;58.13;100090.41;7725191;32;37976;-78
2023/05/01 04:44:33;;;;;;;8.38;5.05;;;;;;;11.77;58.24;100092.59;7709612;32;37867;-79
2023/05/01 04:48:49;;;;;;;8.43;4.90;;;;;;;11.82;58.02;100095.34;7709679;32;38666;-78
2023/05/01 04:53:05;;;;;;;8.05;5.12;;;;;;;11.90;57.58;100097.53;7707984;32;40082;-79
2023/05/01 04:57:21;;;;;;;8.63;4.57;;;;;;;12.05;56.99;100104.94;7711233;32;38751;-79
2023/05/01 05:01:38;;;;;;;7.85;4.20;;;;;;;11.93;57.17;100102.47;7713018;32;37841;-79
2023/05/01 05:05:54;;;;;;;12.18;4.75;;;;;;;12.11;56.71;100097.56;7736224;32;39087;-79
2023/05/01 05:10:10;;;;;;;8.40;4.55;;;;;;;12.27;55.93;100101.91;7738270;32;40761;-78
2023/05/01 05:14:27;;;;;;;8.15;4.87;;;;;;;12.40;55.40;100101.34;7739682;32;38048;-69
2023/05/01 05:18:43;;;;;;;11.02;4.60;;;;;;;12.68;56.97;100107.28;7739482;32;37311;-78
2023/05/01 05:22:59;;;;;;;6.57;3.90;;;;;;;12.64;53.96;100106.22;7739286;32;39249;-78
2023/05/01 05:27:15;;;;;;;8.98;4.37;;;;;;;12.88;53.21;100094.63;7739248;32;40896;-77
2023/05/01 05:31:32;;;;;;;10.15;4.40;;;;;;;13.28;52.17;100095.53;7735844;32;37843;-78
2023/05/01 05:35:48;;;;;;;7.60;3.30;;;;;;;13.34;52.02;100095.25;7738977;32;37641;-78
2023/05/01 05:40:05;;;;;;;6.80;3.80;;;;;;;13.31;51.95;100103.19;7739232;32;40093;-77
2023/05/01 05:44:21;;;;;;;8.18;3.40;;;;;;;13.47;49.06;100112.16;7739072;32;40166;-76
2023/05/01 05:48:37;;;;;;;5.87;2.97;;;;;;;13.58;49.38;100100.06;7739014;32;38805;-76
2023/05/01 05:52:54;;;;;;;5.72;2.87;;;;;;;13.84;46.62;100105.34;7739055;32;36865;-77
2023/05/01 05:57:10;;;;;;;6.05;3.30;;;;;;;13.98;46.53;100111.00;7738498;32;40088;-78
2023/05/01 06:01:26;;;;;;;5.90;3.30;;;;;;;13.99;46.96;100110.72;7738941;32;40014;-75
2023/05/01 06:05:43;;;;;;;7.15;3.00;;;;;;;14.31;47.18;100105.78;7738362;32;37869;-74
2023/05/01 06:10:03;;;;;;;8.38;3.00;;;;;;;14.48;44.90;100103.41;7737905;32;36975;-70
2023/05/01 06:14:20;;;;;;;5.82;2.95;;;;;;;14.67;43.97;100108.19;7738902;32;39896;-71
2023/05/01 06:18:36;;;;;;;8.65;3.17;;;;;;;15.17;42.88;100103.97;7738010;32;39856;-73
2023/05/01 06:22:52;;;;;;;4.30;2.47;;;;;;;14.92;45.88;100102.41;7738530;32;37907;-81
2023/05/01 06:27:09;;;;;;;9.05;2.85;;;;;;;15.41;41.61;100111.37;7722246;32;37281;-79
2023/05/01 06:31:26;;;;;;;3.65;2.60;;;;;;;15.49;40.13;100109.91;7711847;32;39857;-80
2023/05/01 06:35:42;;;;;;;5.97;2.60;;;;;;;15.88;40.26;100108.78;7698982;32;40612;-82
2023/05/01 06:39:58;;;;;;;6.65;3.05;;;;;;;15.90;41.08;100114.78;7735164;32;38060;-82
2023/05/01 06:44:15;;;;;;;7.72;2.70;;;;;;;15.63;38.93;100108.03;7738486;32;38030;-84
2023/05/01 06:48:31;;;;;;;4.35;2.70;;;;;;;15.74;38.97;100115.00;7738416;32;39258;-83
2023/05/01 06:52:48;;;;;;;4.03;2.45;;;;;;;16.10;37.93;100113.66;7738371;32;41269;-82
2023/05/01 06:57:04;;;;;;;5.80;2.90;;;;;;;16.39;38.07;100116.16;7726812;32;38672;-82
2023/05/01 07:01:20;;;;;;;5.45;2.70;;;;;;;16.51;37.56;100113.72;7731149;32;37091;-82
2023/05/01 07:05:39;;;;;;;6.05;2.30;;;;;;;16.30;35.94;100112.50;7731096;32;39325;-81
2023/05/01 07:09:55;;;;;;;5.85;2.62;;;;;;;16.67;36.45;100110.69;7731349;32;38016;-83
2023/05/01 07:14:12;;;;;;;7.97;2.70;;;;;;;16.71;36.13;100112.53;7723378;32;37881;-84
2023/05/01 07:18:28;;;;;;;5.97;2.72;;;;;;;16.61;35.58;100106.41;7725989;32;36745;-82
2023/05/01 07:22:45;;;;;;;3.92;2.50;;;;;;;16.94;34.99;100114.63;7736318;32;40236;-83
2023/05/01 07:27:01;;;;;;;7.15;2.70;;;;;;;17.07;33.69;100116.53;7735824;32;40716;-82
2023/05/01 07:31:17;;;;;;;4.85;2.20;;;;;;;16.99;35.75;100118.06;7734500;32;37812;-83
2023/05/01 07:35:34;;;;;;;4.10;2.15;;;;;;;17.61;34.78;100117.56;7733697;32;37116;-83
2023/05/01 07:39:50;;;;;;;5.97;2.17;;;;;;;17.61;34.64;100116.75;7733618;32;39400;-83
2023/05/01 07:44:06;;;;;;;4.03;2.53;;;;;;;17.44;34.55;100109.94;7734732;32;39629;-83
2023/05/01 07:48:22;;;;;;;6.43;2.40;;;;;;;18.02;33.45;100110.25;7727255;32;38653;-88
2023/05/01 07:52:39;;;;;;;5.72;2.60;;;;;;;18.18;35.62;100102.44;7724655;32;37123;-86
2023/05/01 07:56:55;;;;;;;3.40;2.20;;;;;;;18.66;34.80;100100.88;7724828;32;39358;-87
2023/05/01 08:01:11;;;;;;;13.52;2.95;;;;;;;18.56;34.02;100105.56;7726319;32;39894;-86
2023/05/01 08:05:27;;;;;;;8.40;2.35;;;;;;;18.92;32.68;100104.59;7713415;32;38138;-69
2023/05/01 08:09:45;;;;;;;5.53;2.30;;;;;;;18.94;34.21;100101.53;7712310;32;37718;-79
2023/05/01 08:14:02;;;;;;;3.58;1.95;;;;;;;18.59;34.08;100106.84;7710158;32;39402;-80
2023/05/01 08:18:19;;;;;;;6.40;2.10;;;;;;;18.95;30.79;100109.50;7710332;32;38975;-81
2023/05/01 08:22:36;;;;;;;3.37;1.90;;;;;;;18.76;31.80;100111.66;7719593;32;37614;-81
2023/05/01 08:26:52;;;;;;;5.55;2.28;;;;;;;18.66;31.52;100111.94;7708715;32;37054;-80
2023/05/01 08:31:09;;;;;;;6.75;2.10;;;;;;;19.24;32.52;100110.03;7711356;32;39316;-81
2023/05/01 08:35:25;;;;;;;5.05;2.28;;;;;;;19.08;30.89;100113.25;7712821;32;39892;-80
2023/05/01 08:39:41;;;;;;;5.60;2.17;;;;;;;18.80;32.19;100106.28;7712942;32;38812;-79
2023/05/01 08:44:00;;;;;;;5.05;2.50;;;;;;;19.03;31.44;100112.59;7709530;32;36789;-79
2023/05/01 08:48:17;;;;;;;5.55;2.28;;;;;;;19.15;33.29;100104.50;7709788;32;38359;-79
2023/05/01 08:52:34;;;;;;;6.32;2.30;;;;;;;19.78;32.43;100096.78;7709221;32;41309;-79
2023/05/01 08:56:52;;;;;;;3.22;2.00;;;;;;;20.17;31.48;100100.47;7708541;32;38454;-79
2023/05/01 09:01:12;;;;;;;5.78;2.20;;;;;;;20.12;30.20;100106.16;7712832;32;37019;-79
2023/05/01 09:05:31;;;;;;;5.72;2.30;;;;;;;19.53;29.74;100101.13;7711827;32;39282;-78
2023/05/01 09:09:47;;;;;;;4.22;2.00;;;;;;;20.10;31.17;100099.34;7722244;32;40079;-80
2023/05/01 09:14:04;;;;;;;5.05;2.40;;;;;;;19.75;31.96;100107.66;7729550;32;37861;-79
2023/05/01 09:18:20;;;;;;;6.62;2.22;;;;;;;20.43;29.42;100092.06;7720473;32;37028;-79
2023/05/01 09:22:37;;;;;;;7.90;2.40;;;;;;;20.56;31.33;100089.44;7715235;32;40112;-79
2023/05/01 09:26:54;;;;;;;4.53;2.20;;;;;;;20.62;28.08;100080.63;7712514;32;39868;-78
2023/05/01 09:31:27;;;;;;;3.97;2.12;;;;;;;21.26;29.37;100083.56;7711269;32;37669;-77
2023/05/01 09:35:53;;;;;;;6.25;2.22;;;;;;;21.68;30.65;100076.09;7716664;32;37179;-78
2023/05/01 09:40:11;;;;;;;4.15;1.95;;;;;;;21.67;29.92;100077.22;7738759;32;39174;-78
2023/05/01 09:44:28;;;;;;;3.08;2.05;;;;;;;21.17;28.72;100083.63;7738701;32;39712;-78
2023/05/01 09:48:55;;;;;;;4.87;2.12;;;;;;;21.26;29.12;100081.59;7737936;32;37995;-78
2023/05/01 09:53:12;;;;;;;4.05;2.03;;;;;;;21.53;29.00;100068.38;7738660;32;37134;-78
2023/05/01 09:57:37;;;;;;;6.47;2.45;;;;;;;21.30;28.64;100065.91;7738834;32;39123;-77
2023/05/01 10:01:53;;;;;;;3.90;1.90;;;;;;;21.84;29.62;100061.59;7738660;32;38926;-76
2023/05/01 10:06:09;;;;;;;5.32;2.03;;;;;;;22.33;29.10;100060.94;7719765;32;38802;-77
2023/05/01 10:10:26;;;;;;;3.37;2.12;;;;;;;22.50;28.80;100050.41;7711536;32;37652;-77
2023/05/01 10:14:53;;;;;;;4.07;2.25;;;;;;;22.67;28.17;100043.81;7719365;32;39413;-77
2023/05/01 10:19:10;;;;;;;6.72;1.90;;;;;;;22.74;30.07;100037.69;7738527;32;39895;-77
2023/05/01 10:23:26;;;;;;;2.62;1.80;;;;;;;23.44;28.19;100031.91;7737518;32;37748;-77
2023/05/01 10:27:43;;;;;;;3.30;1.90;;;;;;;23.61;27.38;100028.03;7738259;32;37952;-79
2023/05/01 10:32:00;;;;;;;4.57;1.85;;;;;;;23.61;27.45;100021.62;7738523;32;40022;-78
2023/05/01 10:36:33;;;;;;;7.47;1.98;;;;;;;24.14;27.84;100018.72;7736703;32;40897;-71
2023/05/01 10:40:50;;;;;;;2.10;1.70;;;;;;;24.46;26.65;100013.19;7735973;32;37895;-70
2023/05/01 10:45:28;;;;;;;2.97;2.03;;;;;;;24.52;26.02;100017.28;7737180;32;36913;-70
2023/05/01 10:50:16;;;;;;;3.17;1.98;;;;;;;24.58;27.21;100012.28;7729993;32;40133;-70
2023/05/01 10:54:32;;;;;;;4.47;1.75;;;;;;;24.99;27.94;100004.47;7709257;32;39184;-70
2023/05/01 10:58:59;;;;;;;3.15;1.85;;;;;;;25.29;27.08;100001.97;7745726;32;38785;-70
2023/05/01 11:03:21;;;;;;;3.92;2.20;;;;;;;25.56;26.63;100002.94;7737205;32;38297;-68
2023/05/01 11:07:37;;;;;;;2.07;1.67;;;;;;;25.90;25.94;99999.56;7737484;32;39392;-68
2023/05/01 11:11:54;;;;;;;3.60;1.70;;;;;;;25.94;24.47;99994.84;7737039;32;40612;-70
2023/05/01 11:16:36;;;;;;;2.28;1.50;;;;;;;26.22;25.72;99987.00;7736858;32;37992;-69
2023/05/01 11:20:53;;;;;;;4.15;1.87;;;;;;;26.93;24.48;99975.34;7704355;32;37038;-68
2023/05/01 11:25:21;;;;;;;3.25;1.52;;;;;;;26.21;24.85;99974.19;7710176;32;39423;-69
2023/05/01 11:29:37;;;;;;;2.45;1.60;;;;;;;26.88;23.71;99970.06;7710417;32;39893;-69
2023/05/01 11:33:58;;;;;;;4.18;1.90;;;;;;;27.08;22.99;99967.12;7710472;32;38407;-69
2023/05/01 11:38:18;;;;;;;5.40;2.03;;;;;;;27.07;22.14;99963.53;7725929;32;37072;-69
2023/05/01 11:42:34;;;;;;;4.47;1.85;;;;;;;26.51;22.56;99965.13;7737785;32;39297;-69
2023/05/01 11:47:00;;;;;;;6.68;1.77;;;;;;;26.91;22.67;99955.31;7720245;32;40848;-70
2023/05/01 11:51:17;;;;;;;4.10;1.60;;;;;;;26.56;22.01;99959.19;7710758;32;37615;-69
2023/05/01 11:55:34;;;;;;;5.12;1.92;;;;;;;26.89;22.98;99946.50;7710501;32;36814;-68
2023/05/01 11:59:51;;;;;;;4.70;2.00;;;;;;;26.57;22.98;99952.41;7710622;32;39368;-69
2023/05/01 12:04:07;;;;;;;4.70;1.58;;;;;;;26.51;23.69;99950.31;7708536;32;40795;-69
2023/05/01 12:08:24;;;;;;;2.90;1.73;;;;;;;27.28;23.75;99943.41;7709216;32;38574;-70
2023/05/01 12:12:41;;;;;;;7.22;2.17;;;;;;;27.62;22.64;99937.81;7709231;32;37813;-69
2023/05/01 12:16:57;;;;;;;3.80;1.58;;;;;;;27.48;22.90;99929.25;7710308;32;39396;-69
2023/05/01 12:21:16;;;;;;;3.92;2.00;;;;;;;27.21;23.72;99932.13;7710036;32;40058;-69
2023/05/01 12:25:33;;;;;;;3.83;1.67;;;;;;;26.99;22.71;99925.44;7710774;32;37876;-69
2023/05/01 12:29:50;;;;;;;2.87;1.80;;;;;;;27.08;22.17;99933.53;7710140;32;36770;-69
2023/05/01 12:34:06;;;;;;;3.47;1.83;;;;;;;27.18;23.71;99918.88;7709897;32;39248;-69
2023/05/01 12:38:23;;;;;;;4.03;1.83;;;;;;;27.38;23.69;99913.16;7709633;32;40917;-70
2023/05/01 12:42:40;;;;;;;3.30;1.75;;;;;;;27.58;21.06;99914.56;7709538;32;37831;-77
2023/05/01 12:47:07;;;;;;;5.25;1.70;;;;;;;27.53;20.22;99904.53;7709259;32;37136;-76
2023/05/01 12:51:26;;;;;;;3.85;1.70;;;;;;;27.44;22.78;99900.41;7709263;32;40530;-75
2023/05/01 12:55:44;;;;;;;4.95;1.50;;;;;;;27.93;20.83;99904.13;7719735;32;38845;-76
2023/05/01 13:00:06;;;;;;;2.65;1.40;;;;;;;28.51;20.90;99894.13;7736036;32;36946;-75
2023/05/01 13:04:23;;;;;;;1.98;1.40;;;;;;;28.37;21.61;99887.25;7719009;32;37612;-77
2023/05/01 13:08:39;;;;;;;1.50;1.40;;;;;;;28.53;21.85;99886.09;7724284;32;39440;-75
2023/05/01 13:12:56;;;;;;;4.35;1.67;;;;;;;28.91;20.67;99864.31;7726204;32;41001;-77
2023/05/01 13:17:21;;;;;;;2.53;1.50;;;;;;;28.78;21.92;99864.63;7725822;32;38005;-77
2023/05/01 13:21:45;;;;;;;4.22;1.55;;;;;;;28.72;20.56;99871.84;7710086;32;274249;-76
2023/05/01 13:26:03;;;;;;;3.33;1.55;;;;;;;29.10;20.39;99857.56;7728829;32;39353;-75
2023/05/01 13:30:29;;;;;;;1.98;1.55;;;;;;;29.07;20.08;99850.72;7733101;32;39824;-76
2023/05/01 13:34:46;;;;;;;7.00;1.90;;;;;;;29.32;20.14;99847.19;7746914;32;37868;-76
2023/05/01 13:39:02;;;;;;;3.00;1.40;;;;;;;29.53;20.33;99841.63;7738261;32;36817;-75
2023/05/01 13:43:21;;;;;;;2.72;1.50;;;;;;;29.42;19.36;99840.00;7738568;32;39376;-76
2023/05/01 13:47:40;;;;;;;2.72;1.55;;;;;;;29.72;20.44;99837.62;7738745;32;39861;-75
2023/05/01 13:51:56;;;;;;;5.00;1.50;;;;;;;29.47;18.45;99840.41;7736607;32;37967;-76
2023/05/01 13:56:15;;;;;;;3.97;1.58;;;;;;;29.23;18.78;99839.16;7711146;32;37932;-76
2023/05/01 14:00:31;;;;;;;3.40;1.60;;;;;;;28.72;19.64;99835.38;7726245;32;38311;-76
2023/05/01 14:04:48;;;;;;;2.10;1.40;;;;;;;29.13;21.13;99823.88;7731350;32;39926;-77
2023/05/01 14:09:04;;;;;;;4.32;1.60;;;;;;;29.05;20.17;99816.66;7726273;32;37596;-77
2023/05/01 14:13:21;;;;;;;1.58;1.30;;;;;;;29.51;20.88;99827.19;7726212;32;37896;-76
2023/05/01 14:17:37;;;;;;;4.43;1.50;;;;;;;29.65;20.07;99817.13;7736528;32;40319;-76
2023/05/01 14:21:53;;;;;;;3.17;1.30;;;;;;;29.51;20.18;99821.56;7730693;32;40558;-77
2023/05/01 14:26:10;;;;;;;4.15;1.58;;;;;;;29.92;19.25;99807.12;7732360;32;38763;-77
2023/05/01 14:30:37;;;;;;;2.78;1.45;;;;;;;29.16;18.97;99806.25;7726840;32;37160;-78
2023/05/01 14:34:55;;;;;;;1.33;1.20;;;;;;;28.86;21.06;99808.59;7735079;32;40083;-77
2023/05/01 14:39:14;;;;;;;6.20;1.75;;;;;;;28.70;20.39;99806.94;7735231;32;40575;-77
2023/05/01 14:43:32;;;;;;;2.33;1.30;;;;;;;28.25;20.73;99800.66;7736849;32;37908;-76
2023/05/01 14:47:49;;;;;;;3.78;1.67;;;;;;;28.24;20.87;99787.84;7718039;32;37603;-77
2023/05/01 14:52:05;;;;;;;3.90;1.52;;;;;;;28.60;20.35;99788.06;7732329;32;40801;-74
2023/05/01 14:56:24;;;;;;;2.45;1.45;;;;;;;28.18;22.03;99786.59;7736558;32;39766;-79
2023/05/01 15:00:40;;;;;;;3.65;1.40;;;;;;;28.26;20.55;99774.25;7732662;32;37614;-80
2023/05/01 15:04:56;;;;;;;3.65;1.50;;;;;;;28.23;20.59;99777.81;7733859;32;37002;-82
2023/05/01 15:09:13;;;;;;;3.80;1.62;;;;;;;28.44;20.84;99791.12;7733357;32;40040;-80
2023/05/01 15:13:30;;;;;;;2.92;1.40;;;;;;;28.42;20.87;99780.34;7723510;32;39245;-80
2023/05/01 15:17:47;;;;;;;3.20;1.40;;;;;;;28.40;21.46;99782.72;7725893;32;37544;-78
2023/05/01 15:22:03;;;;;;;1.90;1.35;;;;;;;28.34;21.54;99773.09;7737595;32;37119;-80
2023/05/01 15:26:20;;;;;;;3.67;1.33;;;;;;;28.26;21.59;99772.25;7753907;32;40131;-72
2023/05/01 15:30:36;;;;;;;3.97;1.50;;;;;;;28.26;20.88;99772.25;7717389;32;40499;-79
2023/05/01 15:34:55;;;;;;;4.30;1.48;;;;;;;28.18;21.40;99767.00;7725827;32;37824;-80
2023/05/01 15:39:12;;;;;;;3.17;1.55;;;;;;;27.82;21.63;99763.94;7720604;32;37685;-67
2023/05/01 15:43:29;;;;;;;3.37;1.70;;;;;;;27.23;22.07;99778.63;7726926;32;39012;-69
2023/05/01 15:47:45;;;;;;;3.28;1.48;;;;;;;27.33;20.99;99775.16;7728099;32;40721;-68
2023/05/01 15:52:02;;;;;;;3.25;1.50;;;;;;;26.97;21.72;99766.41;7732398;32;38769;-69
2023/05/01 15:56:18;;;;;;;2.78;1.40;;;;;;;26.79;22.91;99768.19;7720429;32;37639;-80
2023/05/01 16:00:36;;;;;;;2.85;1.60;;;;;;;25.96;23.51;99774.69;7707700;32;39913;-68
2023/05/01 16:04:53;;;;;;;1.85;1.20;;;;;;;26.11;22.54;99770.09;7707197;32;39705;-79
2023/05/01 16:09:09;;;;;;;2.42;1.30;;;;;;;25.55;22.38;99782.81;7707084;32;37831;-68
2023/05/01 16:13:25;;;;;;;2.95;1.35;;;;;;;25.25;22.83;99780.66;7729681;32;37123;-76
2023/05/01 16:17:43;;;;;;;1.45;1.35;;;;;;;25.16;23.64;99774.53;7733819;32;39079;-76
2023/05/01 16:22:03;;;;;;;5.55;2.05;;;;;;;24.70;24.05;99783.62;7732530;32;40416;-75
2023/05/01 16:26:24;;;;;;;3.58;2.20;;;;;;;24.46;25.12;99774.34;7716470;32;37910;-75
2023/05/01 16:30:44;;;;;;;3.65;1.65;;;;;;;24.32;25.77;99774.84;7709999;32;37912;-75
2023/05/01 16:35:02;;;;;;;4.15;1.48;;;;;;;23.79;24.71;99774.44;7709732;32;40011;-80
2023/05/01 16:39:20;;;;;;;2.92;1.27;;;;;;;23.75;26.21;99776.31;7709769;32;40016;-82
2023/05/01 16:43:37;;;;;;;2.95;1.50;;;;;;;23.90;25.70;99775.50;7709794;32;38284;-83
2023/05/01 16:47:54;;;;;;;3.90;1.50;;;;;;;23.39;25.67;99778.22;7709641;32;37081;-81
2023/05/01 16:52:13;;;;;;;3.60;1.75;;;;;;;23.33;25.29;99769.31;7713169;32;39210;-80
2023/05/01 16:56:29;;;;;;;2.47;1.25;;;;;;;23.41;25.40;99782.25;7713551;32;40038;-81
2023/05/01 17:00:45;;;;;;;4.18;1.48;;;;;;;23.14;24.68;99778.38;7713023;32;38036;-83
2023/05/01 17:05:02;;;;;;;4.07;1.48;;;;;;;23.14;26.15;99767.25;7712963;32;36930;-81
2023/05/01 17:09:18;;;;;;;5.28;1.60;;;;;;;22.96;25.91;99775.09;7712977;32;39285;-80
2023/05/01 17:13:35;;;;;;;4.93;1.40;;;;;;;22.92;25.99;99776.97;7712740;32;40007;-81
2023/05/01 17:17:51;;;;;;;4.10;1.77;;;;;;;22.81;25.88;99775.88;7712713;32;38614;-78
2023/05/01 17:22:08;;;;;;;4.60;1.77;;;;;;;22.37;26.81;99776.62;7713426;32;37927;-80
2023/05/01 17:26:24;;;;;;;3.12;1.73;;;;;;;21.95;26.49;99774.13;7712741;32;39960;-79
2023/05/01 17:30:40;;;;;;;4.00;1.73;;;;;;;22.20;26.80;99782.44;7712619;32;39854;-85
2023/05/01 17:34:57;;;;;;;3.78;1.60;;;;;;;21.79;27.41;99782.34;7712551;32;38637;-71
2023/05/01 17:39:13;;;;;;;1.45;1.20;;;;;;;21.82;26.78;99776.09;7712566;32;37165;-75
2023/05/01 17:43:30;;;;;;;1.83;1.25;;;;;;;21.59;27.28;99784.06;7712800;32;39162;-82
2023/05/01 17:47:46;;;;;;;3.03;1.52;;;;;;;21.52;27.13;99789.38;7736099;32;39735;-82
2023/05/01 17:52:03;;;;;;;3.35;1.80;;;;;;;21.29;27.38;99780.69;7740854;32;38754;-83
2023/05/01 17:56:20;;;;;;;3.50;1.45;;;;;;;21.32;26.97;99786.34;7738177;32;37661;-82
2023/05/01 18:00:36;;;;;;;5.10;1.73;;;;;;;20.90;27.30;99791.19;7718389;32;39355;-82
2023/05/01 18:04:54;;;;;;;3.50;1.70;;;;;;;20.96;27.02;99790.66;7711413;32;39984;-80
2023/05/01 18:09:10;;;;;;;5.15;1.80;;;;;;;20.86;27.06;99785.53;7722994;32;37519;-80
2023/05/01 18:13:28;;;;;;;4.12;1.87;;;;;;;20.60;27.48;99792.09;7737416;32;37880;-80
2023/05/01 18:17:44;;;;;;;2.58;1.50;;;;;;;20.62;27.78;99794.56;7736152;32;39897;-80
2023/05/01 18:22:02;;;;;;;3.03;1.45;;;;;;;20.45;27.38;99790.75;7729007;32;40729;-83
2023/05/01 18:26:19;;;;;;;5.50;1.50;;;;;;;20.40;27.16;99793.75;7733163;32;37226;-83
2023/05/01 18:30:36;;;;;;;2.22;1.48;;;;;;;20.20;27.40;99803.63;7719182;32;37870;-82
2023/05/01 18:34:53;;;;;;;2.20;1.25;;;;;;;20.15;27.95;99798.31;7735314;32;39997;-83
2023/05/01 18:39:10;;;;;;;3.40;1.48;;;;;;;20.18;27.63;99803.19;7734397;32;40834;-83
2023/05/01 18:43:26;;;;;;;3.08;1.50;;;;;;;20.04;28.25;99805.38;7736597;32;38713;-82
2023/05/01 18:47:43;;;;;;;2.90;1.40;;;;;;;19.82;28.29;99810.06;7711990;32;35564;-82
2023/05/01 18:51:59;;;;;;;3.97;1.52;;;;;;;19.60;28.71;99818.59;7735131;32;39345;-82
2023/05/01 18:56:16;;;;;;;3.03;1.58;;;;;;;19.36;29.24;99819.97;7734741;32;39966;-83
2023/05/01 19:00:32;;;;;;;4.85;1.58;;;;;;;19.42;29.74;99820.59;7735411;32;38698;-81
2023/05/01 19:04:49;;;;;;;5.03;2.00;;;;;;;19.39;29.84;99824.84;7732823;32;37106;-81
2023/05/01 19:09:12;;;;;;;3.10;1.50;;;;;;;19.07;30.65;99817.94;7717111;32;39048;-82
2023/05/01 19:13:28;;;;;;;6.20;2.00;;;;;;;19.10;30.26;99834.66;7727944;32;39892;-82
2023/05/01 19:17:45;;;;;;;6.03;1.60;;;;;;;18.79;31.79;99828.50;7728423;32;37998;-81
2023/05/01 19:22:01;;;;;;;3.60;1.60;;;;;;;18.68;32.01;99831.59;7727229;32;37053;-82
2023/05/01 19:26:17;;;;;;;6.97;1.75;;;;;;;18.57;31.59;99835.81;7728922;32;39304;-81
2023/05/01 19:30:34;;;;;;;5.97;1.80;;;;;;;18.49;32.55;99831.94;7720030;32;41281;-82
2023/05/01 19:34:50;;;;;;;2.35;1.60;;;;;;;18.26;33.17;99844.22;7724757;32;37897;-80
2023/05/01 19:39:06;;;;;;;6.00;2.10;;;;;;;18.21;33.09;99834.16;7721772;32;36748;-81
2023/05/01 19:43:23;;;;;;;3.40;1.48;;;;;;;18.19;32.95;99839.97;7715578;32;39481;-80
2023/05/01 19:47:39;;;;;;;3.12;1.40;;;;;;;17.99;33.43;99835.91;7720979;32;40769;-81
2023/05/01 19:51:56;;;;;;;6.70;1.87;;;;;;;17.98;33.22;99838.97;7714531;32;38827;-82
2023/05/01 19:56:12;;;;;;;6.37;1.73;;;;;;;17.69;34.25;99848.56;7720619;32;36558;-81
2023/05/01 20:00:30;;;;;;;5.57;1.77;;;;;;;17.70;33.99;99843.88;7728730;32;40113;-81
2023/05/01 20:04:46;;;;;;;4.72;1.75;;;;;;;17.45;34.83;99840.66;7721799;32;40819;-83
2023/05/01 20:09:02;;;;;;;5.10;1.60;;;;;;;17.46;34.46;99839.56;7720553;32;37523;-83